createdAt,value
2018-07-19T00:00:59.347Z,8.80
2018-07-19T00:03:27.438Z,7.73
2018-07-19T00:05:55.536Z,7.80
2018-07-19T00:08:23.594Z,7.40
2018-07-19T00:10:51.638Z,8.43
2018-07-19T00:13:19.675Z,6.73
2018-07-19T00:15:47.797Z,6.60
2018-07-19T00:18:15.889Z,6.80
2018-07-19T00:20:43.895Z,6.70
2018-07-19T00:23:11.983Z,7.30
2018-07-19T00:25:39.993Z,7.77
2018-07-19T00:28:08.267Z,9.07
2018-07-19T00:30:36.438Z,11.67
2018-07-19T00:33:04.559Z,6.43
2018-07-19T00:35:32.584Z,7.70
2018-07-19T00:38:00.769Z,7.40
2018-07-19T00:40:28.964Z,6.83
2018-07-19T00:42:57.213Z,5.70
2018-07-19T00:45:25.473Z,7.30
2018-07-19T00:47:53.628Z,6.37
2018-07-19T00:50:21.724Z,8.83
2018-07-19T00:52:49.840Z,6.53
2018-07-19T00:55:17.919Z,6.17
2018-07-19T00:57:45.959Z,6.20
2018-07-19T01:00:14.085Z,7.87
2018-07-19T01:02:42.095Z,6.33
2018-07-19T01:05:10.174Z,11.93
2018-07-19T01:07:38.252Z,6.77
2018-07-19T01:10:06.364Z,6.00
2018-07-19T01:12:34.479Z,7.63
2018-07-19T01:15:02.676Z,6.20
2018-07-19T01:17:30.692Z,5.73
2018-07-19T01:19:58.806Z,6.10
2018-07-19T01:22:27.726Z,6.00
2018-07-19T01:24:55.832Z,6.53
2018-07-19T01:27:23.864Z,6.70
2018-07-19T01:29:52.025Z,7.23
2018-07-19T01:32:20.087Z,6.07
2018-07-19T01:34:48.112Z,7.00
2018-07-19T01:37:16.212Z,5.47
2018-07-19T01:39:44.245Z,6.50
2018-07-19T01:42:24.824Z,5.87
2018-07-19T01:44:52.915Z,6.37
2018-07-19T01:47:20.939Z,5.60
2018-07-19T01:49:49.050Z,5.23
2018-07-19T01:52:17.098Z,6.57
2018-07-19T01:54:45.198Z,5.93
2018-07-19T01:57:14.573Z,6.47
2018-07-19T01:59:43.392Z,5.60
2018-07-19T02:02:11.868Z,6.07
2018-07-19T02:04:39.938Z,5.67
2018-07-19T02:07:08.445Z,7.80
2018-07-19T02:09:36.726Z,5.60
2018-07-19T02:12:05.043Z,4.83
2018-07-19T02:14:33.158Z,7.90
2018-07-19T02:17:01.574Z,6.37
2018-07-19T02:19:29.693Z,5.87
2018-07-19T02:21:57.805Z,5.13
2018-07-19T02:24:26.031Z,6.53
2018-07-19T02:26:54.141Z,5.27
2018-07-19T02:29:22.462Z,4.73
2018-07-19T02:31:50.491Z,6.07
2018-07-19T02:34:18.725Z,5.57
2018-07-19T02:36:46.698Z,5.80
2018-07-19T02:39:15.031Z,5.23
2018-07-19T02:41:43.190Z,5.97
2018-07-19T02:44:12.370Z,5.20
2018-07-19T02:46:41.581Z,4.83
2018-07-19T02:49:10.146Z,5.40
2018-07-19T02:51:38.967Z,5.63
2018-07-19T02:54:07.105Z,5.23
2018-07-19T02:56:35.106Z,6.30
2018-07-19T02:59:03.168Z,5.60
2018-07-19T03:01:31.297Z,5.37
2018-07-19T03:03:59.421Z,5.70
2018-07-19T03:06:27.468Z,5.63
2018-07-19T03:08:55.597Z,5.27
2018-07-19T03:11:24.101Z,4.70
2018-07-19T03:13:52.142Z,5.33
2018-07-19T03:16:20.397Z,5.23
2018-07-19T03:18:48.447Z,5.40
2018-07-19T03:21:16.629Z,4.67
2018-07-19T03:23:44.736Z,6.47
2018-07-19T03:26:13.035Z,5.87
2018-07-19T03:28:41.114Z,4.77
2018-07-19T03:31:09.842Z,5.00
2018-07-19T03:33:37.971Z,5.40
2018-07-19T03:36:06.217Z,5.63
2018-07-19T03:38:34.257Z,6.37
2018-07-19T03:41:02.355Z,6.13
2018-07-19T03:43:30.888Z,6.90
2018-07-19T03:45:59.010Z,5.67
2018-07-19T03:48:27.082Z,5.87
2018-07-19T03:50:55.200Z,4.67
2018-07-19T03:53:23.331Z,7.67
2018-07-19T03:55:51.401Z,5.37
2018-07-19T03:58:19.615Z,4.83
2018-07-19T04:00:47.811Z,5.90
2018-07-19T04:03:15.848Z,4.50
2018-07-19T04:05:44.134Z,5.13
2018-07-19T04:08:12.282Z,7.83
2018-07-19T04:10:40.290Z,5.20
2018-07-19T04:13:08.278Z,4.70
2018-07-19T04:15:36.555Z,5.97
2018-07-19T04:18:04.684Z,5.30
2018-07-19T04:20:33.131Z,6.13
2018-07-19T04:23:01.217Z,5.10
2018-07-19T04:25:29.639Z,4.97
2018-07-19T04:27:57.985Z,4.33
2018-07-19T04:30:26.123Z,5.33
2018-07-19T04:32:54.390Z,4.53
2018-07-19T04:35:23.090Z,4.80
2018-07-19T04:37:51.388Z,6.37
2018-07-19T04:40:19.548Z,5.30
2018-07-19T04:42:47.608Z,4.93
2018-07-19T04:45:16.211Z,5.33
2018-07-19T04:47:44.422Z,4.87
2018-07-19T04:50:12.438Z,5.50
2018-07-19T04:52:41.497Z,5.57
2018-07-19T04:55:09.876Z,5.13
2018-07-19T04:57:37.964Z,4.73
2018-07-19T05:00:06.240Z,5.07
2018-07-19T05:02:34.433Z,5.27
2018-07-19T05:05:02.561Z,5.13
2018-07-19T05:07:30.650Z,5.00
2018-07-19T05:09:58.781Z,5.00
2018-07-19T05:12:26.930Z,4.40
2018-07-19T05:14:55.119Z,5.73
2018-07-19T05:17:23.373Z,5.03
2018-07-19T05:19:51.973Z,4.60
2018-07-19T05:22:20.486Z,4.87
2018-07-19T05:24:49.361Z,6.70
2018-07-19T05:27:18.327Z,4.93
2018-07-19T05:29:46.958Z,4.83
2018-07-19T05:32:15.659Z,5.87
2018-07-19T05:34:44.222Z,4.73
2018-07-19T05:37:12.718Z,4.53
2018-07-19T05:39:41.369Z,6.60
2018-07-19T05:42:10.545Z,4.00
2018-07-19T05:44:39.183Z,4.17
2018-07-19T05:47:07.832Z,4.37
2018-07-19T05:49:36.203Z,4.93
2018-07-19T05:52:04.416Z,4.80
2018-07-19T05:54:32.618Z,4.30
2018-07-19T05:57:01.206Z,4.73
2018-07-19T05:59:29.316Z,4.60
2018-07-19T06:01:58.660Z,4.30
2018-07-19T06:04:27.026Z,4.70
2018-07-19T06:06:55.349Z,4.77
2018-07-19T06:09:23.849Z,4.50
2018-07-19T06:11:52.368Z,4.70
2018-07-19T06:14:20.680Z,5.23
2018-07-19T06:16:49.196Z,4.20
2018-07-19T06:19:17.544Z,3.73
2018-07-19T06:21:46.053Z,4.00
2018-07-19T06:24:14.468Z,4.20
2018-07-19T06:26:42.854Z,3.80
2018-07-19T06:29:11.048Z,3.77
2018-07-19T06:31:39.204Z,4.07
2018-07-19T06:34:07.318Z,4.10
2018-07-19T06:36:35.722Z,4.00
2018-07-19T06:39:06.388Z,4.43
2018-07-19T06:41:34.453Z,4.00
2018-07-19T06:44:02.690Z,6.70
2018-07-19T06:46:31.307Z,4.47
2018-07-19T06:48:59.889Z,3.60
2018-07-19T06:51:28.481Z,3.53
2018-07-19T06:53:56.719Z,3.00
2018-07-19T06:56:25.153Z,3.13
2018-07-19T06:58:53.544Z,3.10
2018-07-19T07:01:22.292Z,3.73
2018-07-19T07:03:51.165Z,2.93
2018-07-19T07:06:19.423Z,2.90
2018-07-19T07:08:47.669Z,3.00
2018-07-19T07:11:16.120Z,4.40
2018-07-19T07:13:44.682Z,2.93
2018-07-19T07:16:13.016Z,2.50
2018-07-19T07:18:41.247Z,2.13
2018-07-19T07:21:09.513Z,2.47
2018-07-19T07:23:38.034Z,1.83
2018-07-19T07:26:06.596Z,1.50
2018-07-19T07:28:36.570Z,1.67
2018-07-19T07:31:05.301Z,1.47
2018-07-19T07:33:33.846Z,1.40
2018-07-19T07:36:02.580Z,1.90
2018-07-19T07:38:31.448Z,1.60
2018-07-19T07:41:00.203Z,2.23
2018-07-19T07:43:28.606Z,1.77
2018-07-19T07:45:57.041Z,1.73
2018-07-19T07:48:25.557Z,2.00
2018-07-19T07:50:54.186Z,2.17
2018-07-19T07:53:22.721Z,2.07
2018-07-19T07:55:51.182Z,2.43
2018-07-19T07:58:19.786Z,3.10
2018-07-19T08:00:48.311Z,2.30
2018-07-19T08:03:17.221Z,2.20
2018-07-19T08:05:46.019Z,2.67
2018-07-19T08:08:14.676Z,2.40
2018-07-19T08:10:43.677Z,2.80
2018-07-19T08:13:12.325Z,2.03
2018-07-19T08:15:42.132Z,2.43
2018-07-19T08:18:11.282Z,2.40
2018-07-19T08:20:40.492Z,2.50
2018-07-19T08:23:09.169Z,2.10
2018-07-19T08:25:38.030Z,2.50
2018-07-19T08:28:06.750Z,3.00
2018-07-19T08:30:36.383Z,1.93
2018-07-19T08:33:05.028Z,2.10
2018-07-19T08:35:34.180Z,2.07
2018-07-19T08:38:02.718Z,2.37
2018-07-19T08:40:31.457Z,1.90
2018-07-19T08:43:00.072Z,2.23
2018-07-19T08:45:28.794Z,2.40
2018-07-19T08:47:57.549Z,2.00
2018-07-19T08:50:26.155Z,1.93
2018-07-19T08:52:54.692Z,2.33
2018-07-19T08:55:23.216Z,2.77
2018-07-19T08:57:51.885Z,2.17
2018-07-19T09:00:20.345Z,2.20
2018-07-19T09:02:48.850Z,2.33
2018-07-19T09:05:17.520Z,2.43
2018-07-19T09:07:46.159Z,2.67
2018-07-19T09:10:14.562Z,2.90
2018-07-19T09:12:43.330Z,2.40
2018-07-19T09:15:11.627Z,2.30
2018-07-19T09:17:40.108Z,4.63
2018-07-19T09:20:08.626Z,2.27
2018-07-19T09:22:37.350Z,3.27
2018-07-19T09:25:05.916Z,2.73
2018-07-19T09:27:34.592Z,3.10
2018-07-19T09:30:03.400Z,2.73
2018-07-19T09:32:32.515Z,3.27
2018-07-19T09:35:01.611Z,4.27
2018-07-19T09:37:30.852Z,3.43
2018-07-19T09:39:59.848Z,3.37
2018-07-19T09:42:28.981Z,3.93
2018-07-19T09:44:57.941Z,3.47
2018-07-19T09:47:26.610Z,3.47
2018-07-19T09:49:55.808Z,3.97
2018-07-19T09:52:24.457Z,3.30
2018-07-19T09:54:58.875Z,3.00
2018-07-19T09:57:28.503Z,3.50
2018-07-19T09:59:57.707Z,3.37
2018-07-19T10:02:27.010Z,3.20
2018-07-19T10:04:56.058Z,2.97
2018-07-19T10:07:24.703Z,3.20
2018-07-19T10:09:53.983Z,3.70
2018-07-19T10:12:23.406Z,3.17
2018-07-19T10:14:52.338Z,3.70
2018-07-19T10:17:21.084Z,3.23
2018-07-19T10:19:50.058Z,2.90
2018-07-19T10:22:21.792Z,3.37
2018-07-19T10:24:50.368Z,2.93
2018-07-19T10:27:19.078Z,2.37
2018-07-19T10:29:48.129Z,5.17
2018-07-19T10:32:17.202Z,3.23
2018-07-19T10:34:45.995Z,4.00
2018-07-19T10:37:14.428Z,3.23
2018-07-19T10:39:42.823Z,3.67
2018-07-19T10:42:11.377Z,5.03
2018-07-19T10:44:39.922Z,3.77
2018-07-19T10:47:08.314Z,3.10
2018-07-19T10:49:36.902Z,3.10
2018-07-19T10:52:05.667Z,2.77
2018-07-19T10:54:34.160Z,3.20
2018-07-19T10:57:02.751Z,3.00
2018-07-19T10:59:31.231Z,3.00
2018-07-19T11:02:00.658Z,3.73
2018-07-19T11:04:29.600Z,4.40
2018-07-19T11:06:59.792Z,3.70
2018-07-19T11:09:28.251Z,3.50
2018-07-19T11:11:56.733Z,2.83
2018-07-19T11:14:25.089Z,3.40
2018-07-19T11:16:53.585Z,4.27
2018-07-19T11:19:21.904Z,4.30
2018-07-19T11:21:50.215Z,3.30
2018-07-19T11:24:18.520Z,3.20
2018-07-19T11:26:46.974Z,6.60
2018-07-19T11:29:15.333Z,4.70
2018-07-19T11:31:44.035Z,6.03
2018-07-19T11:34:15.193Z,4.30
2018-07-19T11:36:43.796Z,4.30
2018-07-19T11:39:13.431Z,4.70
2018-07-19T11:41:42.001Z,4.60
2018-07-19T11:44:10.753Z,5.37
2018-07-19T11:46:39.394Z,4.90
2018-07-19T11:49:07.747Z,4.83
2018-07-19T11:51:36.108Z,4.87
2018-07-19T11:54:04.702Z,6.53
2018-07-19T11:56:33.315Z,6.93
2018-07-19T11:59:01.681Z,3.63
2018-07-19T12:01:29.979Z,5.10
2018-07-19T12:03:58.277Z,6.03
2018-07-19T12:06:26.642Z,5.67
2018-07-19T12:08:55.421Z,4.17
2018-07-19T12:11:23.991Z,3.93
2018-07-19T12:13:52.845Z,4.40
2018-07-19T12:16:21.532Z,4.83
2018-07-19T12:18:49.931Z,4.67
2018-07-19T12:21:18.425Z,4.93
2018-07-19T12:23:47.048Z,3.90
2018-07-19T12:26:16.009Z,4.70
2018-07-19T12:28:44.614Z,5.00
2018-07-19T12:31:13.299Z,4.83
2018-07-19T12:33:41.888Z,5.23
2018-07-19T12:36:10.428Z,4.50
2018-07-19T12:38:38.784Z,5.17
2018-07-19T12:41:07.379Z,4.83
2018-07-19T12:43:36.652Z,4.30
2018-07-19T12:46:05.121Z,4.13
2018-07-19T12:48:33.586Z,3.67
2018-07-19T12:51:02.242Z,4.30
2018-07-19T12:53:30.900Z,3.63
2018-07-19T12:55:59.410Z,4.37
2018-07-19T12:58:28.019Z,3.53
2018-07-19T13:00:57.321Z,4.03
2018-07-19T13:03:25.745Z,3.33
2018-07-19T13:05:54.590Z,3.30
2018-07-19T13:08:23.735Z,3.27
2018-07-19T13:10:52.329Z,3.50
2018-07-19T13:13:20.755Z,3.70
2018-07-19T13:15:49.677Z,3.40
2018-07-19T13:18:18.376Z,2.73
2018-07-19T13:20:47.504Z,3.30
2018-07-19T13:23:16.193Z,3.53
2018-07-19T13:25:44.896Z,3.03
2018-07-19T13:28:13.637Z,3.40
2018-07-19T13:30:42.299Z,3.73
2018-07-19T13:33:11.207Z,2.77
2018-07-19T13:35:39.733Z,2.30
2018-07-19T13:38:08.235Z,2.37
2018-07-19T13:40:36.528Z,3.07
2018-07-19T13:43:04.927Z,3.13
2018-07-19T13:45:34.370Z,2.57
2018-07-19T13:48:03.086Z,2.53
2018-07-19T13:50:31.509Z,2.73
2018-07-19T13:53:10.965Z,2.40
2018-07-19T13:55:39.260Z,2.37
2018-07-19T13:58:07.638Z,2.50
2018-07-19T14:00:36.077Z,4.03
2018-07-19T14:03:04.482Z,2.07
2018-07-19T14:05:32.935Z,2.43
2018-07-19T14:08:04.243Z,2.00
2018-07-19T14:10:32.609Z,2.30
2018-07-19T14:13:00.990Z,2.50
2018-07-19T14:15:29.450Z,2.67
2018-07-19T14:17:57.855Z,2.07
2018-07-19T14:20:26.254Z,2.20
2018-07-19T14:22:54.790Z,3.17
2018-07-19T14:25:23.371Z,2.13
2018-07-19T14:27:51.947Z,2.40
2018-07-19T14:30:20.683Z,2.40
2018-07-19T14:32:49.297Z,3.37
2018-07-19T14:35:17.755Z,2.17
2018-07-19T14:37:46.158Z,1.80
2018-07-19T14:40:14.468Z,2.17
2018-07-19T14:42:42.752Z,2.30
2018-07-19T14:45:11.206Z,2.40
2018-07-19T14:47:39.664Z,2.07
2018-07-19T14:50:08.132Z,4.33
2018-07-19T14:52:36.849Z,2.03
2018-07-19T14:55:05.620Z,2.50
2018-07-19T14:57:33.951Z,1.73
2018-07-19T15:00:02.440Z,3.07
2018-07-19T15:02:30.847Z,1.80
2018-07-19T15:04:59.803Z,1.87
2018-07-19T15:07:28.583Z,5.07
2018-07-19T15:09:57.028Z,1.87
2018-07-19T15:12:25.502Z,1.83
2018-07-19T15:14:53.911Z,2.20
2018-07-19T15:17:22.319Z,1.60
2018-07-19T15:19:50.718Z,3.47
2018-07-19T15:22:19.191Z,2.07
2018-07-19T15:24:47.846Z,1.90
2018-07-19T15:27:16.482Z,1.93
2018-07-19T15:29:44.899Z,2.00
2018-07-19T15:32:13.270Z,1.77
2018-07-19T15:34:41.807Z,1.90
2018-07-19T15:37:10.640Z,2.97
2018-07-19T15:39:38.769Z,1.80
2018-07-19T15:42:07.260Z,2.30
2018-07-19T15:44:35.505Z,1.90
2018-07-19T15:47:03.634Z,2.10
2018-07-19T15:49:32.012Z,1.90
2018-07-19T15:52:00.102Z,1.60
2018-07-19T15:54:28.248Z,1.87
2018-07-19T15:56:56.458Z,1.60
2018-07-19T15:59:24.534Z,1.80
2018-07-19T16:01:52.763Z,1.60
2018-07-19T16:04:21.040Z,2.03
2018-07-19T16:06:49.250Z,1.70
2018-07-19T16:09:17.583Z,1.47
2018-07-19T16:11:45.874Z,1.83
2018-07-19T16:14:14.347Z,2.30
2018-07-19T16:16:42.786Z,2.40
2018-07-19T16:19:11.384Z,2.23
2018-07-19T16:21:39.528Z,2.47
2018-07-19T16:24:07.718Z,2.73
2018-07-19T16:26:35.938Z,3.97
2018-07-19T16:29:04.232Z,3.13
2018-07-19T16:31:32.411Z,3.33
2018-07-19T16:34:00.894Z,2.97
2018-07-19T16:36:29.022Z,2.30
2018-07-19T16:38:57.262Z,2.60
2018-07-19T16:41:25.530Z,2.70
2018-07-19T16:43:53.670Z,3.67
2018-07-19T16:46:21.866Z,2.90
2018-07-19T16:48:50.514Z,4.10
2018-07-19T16:51:18.827Z,7.33
2018-07-19T16:53:47.176Z,8.80
2018-07-19T16:56:15.431Z,8.87
2018-07-19T16:58:43.696Z,12.27
2018-07-19T17:01:11.959Z,12.57
2018-07-19T17:03:40.363Z,5.37
2018-07-19T17:06:08.587Z,4.93
2018-07-19T17:08:37.474Z,3.97
2018-07-19T17:11:05.923Z,4.50
2018-07-19T17:13:34.151Z,4.27
2018-07-19T17:16:02.809Z,3.60
2018-07-19T17:18:32.976Z,3.70
2018-07-19T17:21:01.660Z,3.63
2018-07-19T17:23:30.047Z,3.53
2018-07-19T17:25:58.645Z,3.40
2018-07-19T17:28:26.965Z,3.60
2018-07-19T17:30:56.260Z,3.27
2018-07-19T17:33:24.757Z,3.10
2018-07-19T17:35:53.140Z,3.57
2018-07-19T17:38:21.680Z,4.27
2018-07-19T17:40:50.922Z,3.73
2018-07-19T17:43:19.274Z,3.33
2018-07-19T17:45:47.904Z,3.07
2018-07-19T17:48:16.562Z,3.50
2018-07-19T17:50:45.887Z,3.47
2018-07-19T17:53:14.605Z,3.70
2018-07-19T17:55:43.084Z,3.10
2018-07-19T17:58:11.558Z,3.60
2018-07-19T18:00:39.929Z,3.87
2018-07-19T18:03:08.366Z,5.63
2018-07-19T18:05:36.760Z,5.30
2018-07-19T18:08:05.354Z,4.20
2018-07-19T18:10:33.738Z,4.03
2018-07-19T18:13:01.995Z,3.27
2018-07-19T18:15:30.566Z,2.90
2018-07-19T18:17:59.368Z,2.87
2018-07-19T18:20:27.746Z,2.93
2018-07-19T18:22:56.043Z,3.20
2018-07-19T18:25:24.465Z,2.83
2018-07-19T18:27:52.654Z,3.03
2018-07-19T18:30:20.955Z,3.77
2018-07-19T18:32:49.400Z,3.03
2018-07-19T18:35:17.698Z,2.77
2018-07-19T18:37:45.881Z,3.50
2018-07-19T18:40:14.122Z,2.80
2018-07-19T18:42:42.345Z,3.60
2018-07-19T18:45:10.660Z,5.70
2018-07-19T18:47:39.075Z,4.83
2018-07-19T18:50:07.401Z,3.27
2018-07-19T18:52:35.945Z,5.57
2018-07-19T18:55:04.756Z,3.10
2018-07-19T18:57:33.420Z,3.47
2018-07-19T19:00:01.864Z,4.70
2018-07-19T19:02:30.150Z,5.30
2018-07-19T19:04:58.636Z,4.37
2018-07-19T19:07:26.962Z,3.80
2018-07-19T19:09:55.682Z,3.20
2018-07-19T19:12:24.281Z,8.70
2018-07-19T19:14:53.121Z,3.97
2018-07-19T19:17:21.798Z,4.60
2018-07-19T19:19:50.714Z,6.37
2018-07-19T19:22:19.225Z,3.40
2018-07-19T19:24:47.480Z,4.30
2018-07-19T19:27:15.949Z,4.87
2018-07-19T19:29:46.467Z,3.80
2018-07-19T19:32:14.729Z,4.13
2018-07-19T19:34:43.035Z,3.37
2018-07-19T19:37:11.265Z,4.73
2018-07-19T19:39:39.905Z,5.23
2018-07-19T19:42:08.211Z,5.73
2018-07-19T19:44:36.431Z,3.97
2018-07-19T19:47:04.556Z,4.63
2018-07-19T19:49:32.783Z,4.73
2018-07-19T19:52:01.071Z,4.73
2018-07-19T19:54:29.439Z,3.83
2018-07-19T19:56:58.140Z,5.37
2018-07-19T19:59:26.282Z,7.10
2018-07-19T20:01:54.544Z,3.80
2018-07-19T20:04:22.825Z,4.33
2018-07-19T20:06:51.089Z,3.90
2018-07-19T20:09:19.512Z,4.20
2018-07-19T20:11:47.910Z,4.60
2018-07-19T20:14:16.140Z,4.53
2018-07-19T20:16:44.385Z,4.67
2018-07-19T20:19:12.595Z,6.20
2018-07-19T20:21:40.853Z,4.23
2018-07-19T20:24:09.077Z,5.03
2018-07-19T20:26:37.284Z,4.53
2018-07-19T20:29:06.116Z,5.50
2018-07-19T20:31:34.290Z,4.30
2018-07-19T20:34:02.597Z,4.63
2018-07-19T20:36:30.849Z,6.10
2018-07-19T20:38:59.011Z,4.70
2018-07-19T20:41:27.503Z,4.60
2018-07-19T20:43:55.788Z,6.63
2018-07-19T20:46:24.284Z,8.07
2018-07-19T20:48:52.552Z,7.93
2018-07-19T20:51:20.752Z,5.20
2018-07-19T20:53:49.007Z,4.73
2018-07-19T20:56:17.217Z,5.27
2018-07-19T20:58:45.329Z,5.30
2018-07-19T21:01:13.713Z,7.13
2018-07-19T21:03:41.860Z,8.07
2018-07-19T21:06:10.042Z,6.63
2018-07-19T21:08:38.188Z,5.27
2018-07-19T21:11:06.481Z,7.03
2018-07-19T21:13:34.639Z,5.93
2018-07-19T21:16:02.722Z,6.67
2018-07-19T21:18:30.821Z,6.20
2018-07-19T21:20:58.860Z,11.60
2018-07-19T21:23:26.941Z,6.57
2018-07-19T21:25:55.055Z,10.43
2018-07-19T21:28:23.200Z,11.60
2018-07-19T21:30:51.430Z,9.03
2018-07-19T21:33:19.732Z,12.37
2018-07-19T21:35:47.903Z,7.70
2018-07-19T21:38:15.949Z,9.17
2018-07-19T21:40:44.278Z,8.73
2018-07-19T21:43:12.436Z,8.13
2018-07-19T21:45:40.543Z,8.50
2018-07-19T21:48:08.607Z,10.83
2018-07-19T21:50:36.723Z,7.43
2018-07-19T21:53:04.864Z,8.83
2018-07-19T21:55:33.090Z,8.40
2018-07-19T21:58:01.177Z,8.63
2018-07-19T22:00:30.195Z,8.10
2018-07-19T22:03:00.129Z,8.80
2018-07-19T22:05:28.321Z,6.97
2018-07-19T22:07:56.464Z,7.33
2018-07-19T22:10:24.667Z,7.67
2018-07-19T22:12:52.811Z,8.63
2018-07-19T22:15:20.896Z,8.40
2018-07-19T22:17:49.038Z,8.57
2018-07-19T22:20:17.133Z,8.17
2018-07-19T22:22:45.177Z,7.60
2018-07-19T22:25:13.295Z,9.83
2018-07-19T22:27:41.425Z,8.20
2018-07-19T22:30:09.571Z,10.37
2018-07-19T22:32:37.752Z,7.30
2018-07-19T22:35:05.884Z,7.97
2018-07-19T22:37:33.955Z,12.63
2018-07-19T22:40:02.063Z,8.63
2018-07-19T22:42:30.289Z,8.10
2018-07-19T22:44:58.425Z,7.93
2018-07-19T22:47:26.576Z,8.77
2018-07-19T22:49:54.747Z,7.67
2018-07-19T22:52:22.835Z,8.80
2018-07-19T22:54:51.013Z,10.67
2018-07-19T22:57:19.149Z,8.00
2018-07-19T22:59:47.459Z,8.20
2018-07-19T23:02:15.579Z,8.00
2018-07-19T23:04:43.637Z,7.37
2018-07-19T23:07:11.724Z,6.43
2018-07-19T23:09:39.885Z,7.53
2018-07-19T23:12:08.043Z,7.07
2018-07-19T23:14:36.165Z,8.80
2018-07-19T23:17:04.285Z,7.23
2018-07-19T23:19:32.373Z,8.33
2018-07-19T23:22:00.526Z,7.87
2018-07-19T23:24:28.722Z,7.73
2018-07-19T23:26:56.964Z,7.53
2018-07-19T23:29:25.171Z,8.10
2018-07-19T23:31:53.264Z,9.03
2018-07-19T23:34:21.416Z,8.23
2018-07-19T23:36:52.864Z,9.07
2018-07-19T23:39:41.949Z,8.00
2018-07-19T23:42:43.690Z,7.67
2018-07-19T23:45:19.180Z,7.13
2018-07-19T23:47:47.395Z,8.63
2018-07-19T23:50:15.556Z,7.23
2018-07-19T23:52:43.683Z,7.73
2018-07-19T23:55:11.840Z,8.00
2018-07-19T23:57:39.989Z,8.40
